Bordentown, NJ

7:10 PM EDT on October 22, 2014 (GMT -0400)
The Farm | Change Station
CLOSE
Current Station
Personal Weather Station
Location: Bordentown, NJ
Elevation: 100 ft
Nearby Weather Stations

Elev 100 ft 40.11 °N, 74.73 °W | Updated 34 seconds ago

Rain
Rain
52.6 °F
Feels Like 52.6 °F
N
5.0
Wind Variable Wind from North
Gusts 15.0 mph

Today
High -- | Low -- °F
--% Chance of Precip.
Yesterday
High -- | Low -- °F
Precip. -- in
7:16 AM 6:09 PM
Waning Crescent, 1% visible
Pressure 29.80 in
Visibility 10.0 miles
Clouds Few 1400 ft
Scattered Clouds 4600 ft
Overcast 6500 ft
Dew Point 51 °F
Humidity 93%
Rainfall 0.51 in
Snow Depth Not available.
UV 0 out of 12
Pollen .30 out of 12
Ozone Good
PM2.5 Good
Flu Activity Sporadic
METAR KWRI 222258Z AUTO 34016G19KT 10SM RA FEW014 SCT046 OVC065 11/10 A2979 RMK AO2 RAB2202 SLP091 P0002 T01100096

More Conditions Fewer Conditions

Pressure 29.80 in
Visibility 10.0 miles
Clouds Few 1400 ft
Scattered Clouds 4600 ft
Overcast 6500 ft
Dew Point 51 °F
Humidity 93%
Rainfall 0.51 in
Snow Depth Not available.
UV 0 out of 12
Pollen .30 out of 12
Ozone Good
PM2.5 Good
Flu Activity Sporadic
METAR KWRI 222258Z AUTO 34016G19KT 10SM RA FEW014 SCT046 OVC065 11/10 A2979 RMK AO2 RAB2202 SLP091 P0002 T01100096

More Conditions Fewer Conditions

10-Day Weather Forecast

Almanac

Astronomy

Oct. 22, 2014 Rise Set
Actual Time 7:16 AM EDT 6:09 PM EDT
Civil Twilight 6:49 AM EDT 6:36 PM EDT
Nautical Twilight 6:17 AM EDT 7:08 PM EDT
Astronomical Twilight 5:46 AM EDT 7:39 PM EDT
Moon 5:55 AM EDT 5:34 PM EDT
Length of Visible Light 11h 47m
Length of Day
10h 52m
Tomorrow will be 2m 27s shorter.
Waning Crescent, 1% of the Moon is Illuminated
Today
Waning Crescent
Oct 23
New
Oct 30
First Quarter
Nov 6
Full
Nov 14
Last Quarter

Today's Extremes

State Highs State Lows

Community

WunderPhotos

Upload Photos

1,764,075 photos uploaded!

WunderBlogs® & News

Nearby

Air Quality

  Air Quality AQ Index Pollutant
Yesterday Moderate
PM2.5
Yesterday Good
OZONE
Current Good
PM2.5
Current Good
OZONE
Wednesday Good
PM2.5
Thursday Good
PM2.5
Friday Good
PM2.5
Saturday Good
PM2.5

Snow Depth

Station Depth Elevation
No new snow has been reported.

Earthquake Activity

City Distance Mag. Time & Date
No recent earthquake activity has been reported nearby.
Minimum magnitude displayed is 2.5.

Coastal Water Temperatures

Place Temperature
No Stations Reporting

Nearby Weather Stations